sensor_id;sensor_type;location;lat;lon;timestamp;temperature;humidity
25939;DHT22;13739;51.172;4.466;2022-08-01T00:01:22;21.20;99.90
25939;DHT22;13739;51.172;4.466;2022-08-01T00:03:48;21.30;99.90
25939;DHT22;13739;51.172;4.466;2022-08-01T00:06:13;21.30;99.90
25939;DHT22;13739;51.172;4.466;2022-08-01T00:08:39;21.30;99.90
25939;DHT22;13739;51.172;4.466;2022-08-01T00:11:04;21.30;99.90
25939;DHT22;13739;51.172;4.466;2022-08-01T00:13:30;21.20;99.90
25939;DHT22;13739;51.172;4.466;2022-08-01T00:15:56;21.20;99.90
25939;DHT22;13739;51.172;4.466;2022-08-01T00:18:21;21.10;99.90
25939;DHT22;13739;51.172;4.466;2022-08-01T00:20:47;21.10;99.90
25939;DHT22;13739;51.172;4.466;2022-08-01T00:23:12;21.10;99.90
25939;DHT22;13739;51.172;4.466;2022-08-01T00:25:38;21.10;99.90
25939;DHT22;13739;51.172;4.466;2022-08-01T00:28:04;21.30;99.90
25939;DHT22;13739;51.172;4.466;2022-08-01T00:30:34;21.30;99.90
25939;DHT22;13739;51.172;4.466;2022-08-01T00:32:59;21.30;99.90
25939;DHT22;13739;51.172;4.466;2022-08-01T00:35:25;21.30;99.90
25939;DHT22;13739;51.172;4.466;2022-08-01T00:37:51;21.30;99.90
25939;DHT22;13739;51.172;4.466;2022-08-01T00:40:17;21.30;99.90
25939;DHT22;13739;51.172;4.466;2022-08-01T00:42:42;21.30;99.90
25939;DHT22;13739;51.172;4.466;2022-08-01T00:45:08;21.30;99.90
25939;DHT22;13739;51.172;4.466;2022-08-01T00:47:34;21.20;99.90
25939;DHT22;13739;51.172;4.466;2022-08-01T00:50:04;21.20;99.90
25939;DHT22;13739;51.172;4.466;2022-08-01T00:52:30;21.10;99.90
25939;DHT22;13739;51.172;4.466;2022-08-01T00:54:56;21.10;99.90
25939;DHT22;13739;51.172;4.466;2022-08-01T00:57:22;21.10;99.90
25939;DHT22;13739;51.172;4.466;2022-08-01T00:59:48;21.10;99.90
25939;DHT22;13739;51.172;4.466;2022-08-01T01:02:13;21.20;99.90
25939;DHT22;13739;51.172;4.466;2022-08-01T01:04:39;21.20;99.90
25939;DHT22;13739;51.172;4.466;2022-08-01T01:07:57;21.10;99.90
25939;DHT22;13739;51.172;4.466;2022-08-01T01:10:04;21.10;99.90
25939;DHT22;13739;51.172;4.466;2022-08-01T01:15:26;21.20;99.90
25939;DHT22;13739;51.172;4.466;2022-08-01T01:20:37;21.00;99.90
25939;DHT22;13739;51.172;4.466;2022-08-01T01:23:33;20.80;99.90
25939;DHT22;13739;51.172;4.466;2022-08-01T01:28:48;20.90;99.90
25939;DHT22;13739;51.172;4.466;2022-08-01T01:31:14;21.10;99.90
25939;DHT22;13739;51.172;4.466;2022-08-01T01:33:42;20.90;99.90
25939;DHT22;13739;51.172;4.466;2022-08-01T01:36:09;20.70;99.90
25939;DHT22;13739;51.172;4.466;2022-08-01T01:38:40;20.70;99.90
25939;DHT22;13739;51.172;4.466;2022-08-01T01:41:11;20.60;99.90
25939;DHT22;13739;51.172;4.466;2022-08-01T01:43:39;20.60;99.90
25939;DHT22;13739;51.172;4.466;2022-08-01T01:46:06;20.50;99.90
25939;DHT22;13739;51.172;4.466;2022-08-01T01:48:34;20.60;99.90
25939;DHT22;13739;51.172;4.466;2022-08-01T01:51:01;20.50;99.90
25939;DHT22;13739;51.172;4.466;2022-08-01T01:53:28;20.40;99.90
25939;DHT22;13739;51.172;4.466;2022-08-01T01:55:56;20.40;99.90
25939;DHT22;13739;51.172;4.466;2022-08-01T01:58:23;20.40;99.90
25939;DHT22;13739;51.172;4.466;2022-08-01T02:00:51;20.50;99.90
25939;DHT22;13739;51.172;4.466;2022-08-01T02:03:18;20.50;99.90
25939;DHT22;13739;51.172;4.466;2022-08-01T02:05:45;20.40;99.90
25939;DHT22;13739;51.172;4.466;2022-08-01T02:08:15;20.30;99.90
25939;DHT22;13739;51.172;4.466;2022-08-01T02:10:42;20.20;99.90
25939;DHT22;13739;51.172;4.466;2022-08-01T02:13:32;20.30;99.90
25939;DHT22;13739;51.172;4.466;2022-08-01T02:15:58;20.40;99.90
25939;DHT22;13739;51.172;4.466;2022-08-01T02:18:24;20.30;99.90
25939;DHT22;13739;51.172;4.466;2022-08-01T02:20:52;20.30;99.90
25939;DHT22;13739;51.172;4.466;2022-08-01T02:23:20;20.30;99.90
25939;DHT22;13739;51.172;4.466;2022-08-01T02:25:52;20.30;99.90
25939;DHT22;13739;51.172;4.466;2022-08-01T02:28:30;20.20;99.90
25939;DHT22;13739;51.172;4.466;2022-08-01T02:31:02;20.20;99.90
25939;DHT22;13739;51.172;4.466;2022-08-01T02:33:37;20.10;99.90
25939;DHT22;13739;51.172;4.466;2022-08-01T02:36:05;20.00;99.90
25939;DHT22;13739;51.172;4.466;2022-08-01T02:38:33;19.90;99.90
25939;DHT22;13739;51.172;4.466;2022-08-01T02:41:05;19.80;99.90
25939;DHT22;13739;51.172;4.466;2022-08-01T02:43:34;19.80;99.90
25939;DHT22;13739;51.172;4.466;2022-08-01T02:46:02;19.70;99.90
25939;DHT22;13739;51.172;4.466;2022-08-01T02:48:31;19.80;99.90
25939;DHT22;13739;51.172;4.466;2022-08-01T02:51:02;19.70;99.90
25939;DHT22;13739;51.172;4.466;2022-08-01T02:53:32;19.80;99.90
25939;DHT22;13739;51.172;4.466;2022-08-01T02:56:06;19.80;99.90
25939;DHT22;13739;51.172;4.466;2022-08-01T02:58:35;19.80;99.90
25939;DHT22;13739;51.172;4.466;2022-08-01T03:01:03;19.90;99.90
25939;DHT22;13739;51.172;4.466;2022-08-01T03:03:30;20.00;99.90
25939;DHT22;13739;51.172;4.466;2022-08-01T03:05:57;20.00;99.90
25939;DHT22;13739;51.172;4.466;2022-08-01T03:08:23;19.90;99.90
25939;DHT22;13739;51.172;4.466;2022-08-01T03:10:50;19.90;99.90
25939;DHT22;13739;51.172;4.466;2022-08-01T03:13:17;20.00;99.90
25939;DHT22;13739;51.172;4.466;2022-08-01T03:15:44;20.00;99.90
25939;DHT22;13739;51.172;4.466;2022-08-01T03:18:12;20.10;99.90
25939;DHT22;13739;51.172;4.466;2022-08-01T03:20:39;20.00;99.90
25939;DHT22;13739;51.172;4.466;2022-08-01T03:23:07;19.90;99.90
25939;DHT22;13739;51.172;4.466;2022-08-01T03:25:36;19.90;99.90
25939;DHT22;13739;51.172;4.466;2022-08-01T03:28:04;20.10;99.90
25939;DHT22;13739;51.172;4.466;2022-08-01T03:30:32;20.20;99.90
25939;DHT22;13739;51.172;4.466;2022-08-01T03:32:58;20.20;99.90
25939;DHT22;13739;51.172;4.466;2022-08-01T03:35:36;20.20;99.90
25939;DHT22;13739;51.172;4.466;2022-08-01T03:38:03;20.10;99.90
25939;DHT22;13739;51.172;4.466;2022-08-01T03:43:26;20.10;99.90
25939;DHT22;13739;51.172;4.466;2022-08-01T03:45:59;20.10;99.90
25939;DHT22;13739;51.172;4.466;2022-08-01T03:48:29;20.10;99.90
25939;DHT22;13739;51.172;4.466;2022-08-01T03:50:58;20.20;99.90
25939;DHT22;13739;51.172;4.466;2022-08-01T03:53:27;20.40;99.90
25939;DHT22;13739;51.172;4.466;2022-08-01T03:55:55;20.40;99.90
25939;DHT22;13739;51.172;4.466;2022-08-01T03:58:21;20.50;99.90
25939;DHT22;13739;51.172;4.466;2022-08-01T04:00:47;20.50;99.90
25939;DHT22;13739;51.172;4.466;2022-08-01T04:03:14;20.40;99.90
25939;DHT22;13739;51.172;4.466;2022-08-01T04:05:43;20.50;99.90
25939;DHT22;13739;51.172;4.466;2022-08-01T04:08:09;20.40;99.90
25939;DHT22;13739;51.172;4.466;2022-08-01T04:10:36;20.40;99.90
25939;DHT22;13739;51.172;4.466;2022-08-01T04:13:02;20.40;99.90
25939;DHT22;13739;51.172;4.466;2022-08-01T04:15:28;20.40;99.90
25939;DHT22;13739;51.172;4.466;2022-08-01T04:17:53;20.30;99.90
25939;DHT22;13739;51.172;4.466;2022-08-01T04:20:20;20.20;99.90
25939;DHT22;13739;51.172;4.466;2022-08-01T04:22:45;19.90;99.90
25939;DHT22;13739;51.172;4.466;2022-08-01T04:25:21;19.80;99.90
25939;DHT22;13739;51.172;4.466;2022-08-01T04:27:49;19.70;99.90
25939;DHT22;13739;51.172;4.466;2022-08-01T04:30:18;19.90;99.90
25939;DHT22;13739;51.172;4.466;2022-08-01T04:32:46;19.80;99.90
25939;DHT22;13739;51.172;4.466;2022-08-01T04:35:14;20.00;99.90
25939;DHT22;13739;51.172;4.466;2022-08-01T04:37:43;20.10;99.90
25939;DHT22;13739;51.172;4.466;2022-08-01T04:40:10;20.00;99.90
25939;DHT22;13739;51.172;4.466;2022-08-01T04:42:36;20.20;99.90
25939;DHT22;13739;51.172;4.466;2022-08-01T04:45:02;20.30;99.90
25939;DHT22;13739;51.172;4.466;2022-08-01T04:47:28;20.50;99.90
25939;DHT22;13739;51.172;4.466;2022-08-01T04:49:55;20.60;99.90
25939;DHT22;13739;51.172;4.466;2022-08-01T04:52:22;20.60;99.90
25939;DHT22;13739;51.172;4.466;2022-08-01T04:54:47;20.50;99.90
25939;DHT22;13739;51.172;4.466;2022-08-01T04:57:13;20.40;99.90
25939;DHT22;13739;51.172;4.466;2022-08-01T04:59:42;20.40;99.90
25939;DHT22;13739;51.172;4.466;2022-08-01T05:02:11;20.50;99.90
25939;DHT22;13739;51.172;4.466;2022-08-01T05:04:38;20.50;99.90
25939;DHT22;13739;51.172;4.466;2022-08-01T05:07:05;20.60;99.90
25939;DHT22;13739;51.172;4.466;2022-08-01T05:09:32;20.60;99.90
25939;DHT22;13739;51.172;4.466;2022-08-01T05:12:02;20.60;99.90
25939;DHT22;13739;51.172;4.466;2022-08-01T05:14:29;20.60;99.90
25939;DHT22;13739;51.172;4.466;2022-08-01T05:16:58;20.60;99.90
25939;DHT22;13739;51.172;4.466;2022-08-01T05:19:24;20.70;99.90
25939;DHT22;13739;51.172;4.466;2022-08-01T05:21:50;20.80;99.90
25939;DHT22;13739;51.172;4.466;2022-08-01T05:24:16;20.60;99.90
25939;DHT22;13739;51.172;4.466;2022-08-01T05:26:42;20.60;99.90
25939;DHT22;13739;51.172;4.466;2022-08-01T05:29:07;20.60;99.90
25939;DHT22;13739;51.172;4.466;2022-08-01T05:31:33;20.60;99.90
25939;DHT22;13739;51.172;4.466;2022-08-01T05:34:03;20.50;99.90
25939;DHT22;13739;51.172;4.466;2022-08-01T05:36:29;20.60;99.90
25939;DHT22;13739;51.172;4.466;2022-08-01T05:38:55;20.50;99.90
25939;DHT22;13739;51.172;4.466;2022-08-01T05:41:20;20.60;99.90
25939;DHT22;13739;51.172;4.466;2022-08-01T05:43:46;20.60;99.90
25939;DHT22;13739;51.172;4.466;2022-08-01T05:46:12;20.60;99.90
25939;DHT22;13739;51.172;4.466;2022-08-01T05:48:37;20.90;99.90
25939;DHT22;13739;51.172;4.466;2022-08-01T05:51:03;21.10;99.90
25939;DHT22;13739;51.172;4.466;2022-08-01T05:53:29;21.10;99.90
25939;DHT22;13739;51.172;4.466;2022-08-01T05:55:55;21.10;99.90
25939;DHT22;13739;51.172;4.466;2022-08-01T05:58:21;20.80;99.90
25939;DHT22;13739;51.172;4.466;2022-08-01T06:00:47;20.70;99.90
25939;DHT22;13739;51.172;4.466;2022-08-01T06:03:12;20.70;99.90
25939;DHT22;13739;51.172;4.466;2022-08-01T06:05:39;20.90;99.90
25939;DHT22;13739;51.172;4.466;2022-08-01T06:08:05;21.00;99.90
25939;DHT22;13739;51.172;4.466;2022-08-01T06:10:31;20.90;99.90
25939;DHT22;13739;51.172;4.466;2022-08-01T06:12:56;21.00;99.90
25939;DHT22;13739;51.172;4.466;2022-08-01T06:15:22;21.00;99.90
25939;DHT22;13739;51.172;4.466;2022-08-01T06:17:48;21.30;99.90
25939;DHT22;13739;51.172;4.466;2022-08-01T06:20:13;21.40;99.90
25939;DHT22;13739;51.172;4.466;2022-08-01T06:22:39;21.70;99.90
25939;DHT22;13739;51.172;4.466;2022-08-01T06:25:05;21.80;99.90
25939;DHT22;13739;51.172;4.466;2022-08-01T06:27:34;21.90;99.90
25939;DHT22;13739;51.172;4.466;2022-08-01T06:30:00;21.80;99.90
25939;DHT22;13739;51.172;4.466;2022-08-01T06:32:26;21.70;99.90
25939;DHT22;13739;51.172;4.466;2022-08-01T06:34:52;21.60;99.90
25939;DHT22;13739;51.172;4.466;2022-08-01T06:37:18;21.30;99.90
25939;DHT22;13739;51.172;4.466;2022-08-01T06:39:44;21.40;99.90
25939;DHT22;13739;51.172;4.466;2022-08-01T06:42:09;21.20;99.90
25939;DHT22;13739;51.172;4.466;2022-08-01T06:44:35;21.50;99.90
25939;DHT22;13739;51.172;4.466;2022-08-01T06:47:01;21.50;99.90
25939;DHT22;13739;51.172;4.466;2022-08-01T06:49:27;21.50;99.90
25939;DHT22;13739;51.172;4.466;2022-08-01T06:51:53;21.30;99.90
25939;DHT22;13739;51.172;4.466;2022-08-01T06:54:19;21.40;99.90
25939;DHT22;13739;51.172;4.466;2022-08-01T06:56:44;21.50;99.90
25939;DHT22;13739;51.172;4.466;2022-08-01T06:59:10;21.20;99.90
25939;DHT22;13739;51.172;4.466;2022-08-01T07:01:36;21.10;99.90
25939;DHT22;13739;51.172;4.466;2022-08-01T07:04:02;20.90;99.90
25939;DHT22;13739;51.172;4.466;2022-08-01T07:06:28;21.10;99.90
25939;DHT22;13739;51.172;4.466;2022-08-01T07:08:53;21.10;99.90
25939;DHT22;13739;51.172;4.466;2022-08-01T07:11:20;21.30;99.90
25939;DHT22;13739;51.172;4.466;2022-08-01T07:13:46;21.50;99.90
25939;DHT22;13739;51.172;4.466;2022-08-01T07:16:14;21.80;99.90
25939;DHT22;13739;51.172;4.466;2022-08-01T07:18:40;22.00;99.90
25939;DHT22;13739;51.172;4.466;2022-08-01T07:21:06;22.30;99.90
25939;DHT22;13739;51.172;4.466;2022-08-01T07:23:32;22.10;99.90
25939;DHT22;13739;51.172;4.466;2022-08-01T07:25:58;22.20;99.90
25939;DHT22;13739;51.172;4.466;2022-08-01T07:28:25;22.20;99.90
25939;DHT22;13739;51.172;4.466;2022-08-01T07:30:51;22.20;99.90
25939;DHT22;13739;51.172;4.466;2022-08-01T07:33:16;22.30;99.90
25939;DHT22;13739;51.172;4.466;2022-08-01T07:35:42;22.20;99.90
25939;DHT22;13739;51.172;4.466;2022-08-01T07:38:07;22.30;99.90
25939;DHT22;13739;51.172;4.466;2022-08-01T07:40:33;22.00;99.90
25939;DHT22;13739;51.172;4.466;2022-08-01T07:42:59;21.80;99.90
25939;DHT22;13739;51.172;4.466;2022-08-01T07:45:25;22.00;99.90
25939;DHT22;13739;51.172;4.466;2022-08-01T07:47:52;22.10;99.90
25939;DHT22;13739;51.172;4.466;2022-08-01T07:50:17;22.40;99.90
25939;DHT22;13739;51.172;4.466;2022-08-01T07:52:43;22.50;99.90
25939;DHT22;13739;51.172;4.466;2022-08-01T07:55:10;22.60;99.90
25939;DHT22;13739;51.172;4.466;2022-08-01T07:57:36;22.60;99.90
25939;DHT22;13739;51.172;4.466;2022-08-01T08:00:05;22.70;99.90
25939;DHT22;13739;51.172;4.466;2022-08-01T08:02:31;22.70;99.90
25939;DHT22;13739;51.172;4.466;2022-08-01T08:04:57;22.50;99.90
25939;DHT22;13739;51.172;4.466;2022-08-01T08:07:23;22.50;99.90
25939;DHT22;13739;51.172;4.466;2022-08-01T08:09:49;22.50;99.90
25939;DHT22;13739;51.172;4.466;2022-08-01T08:12:14;22.50;99.90
25939;DHT22;13739;51.172;4.466;2022-08-01T08:14:40;22.70;99.90
25939;DHT22;13739;51.172;4.466;2022-08-01T08:17:06;22.60;99.90
25939;DHT22;13739;51.172;4.466;2022-08-01T08:19:32;22.60;99.90
25939;DHT22;13739;51.172;4.466;2022-08-01T08:21:59;22.50;99.90
25939;DHT22;13739;51.172;4.466;2022-08-01T08:24:26;22.90;99.90
25939;DHT22;13739;51.172;4.466;2022-08-01T08:26:58;23.20;99.90
25939;DHT22;13739;51.172;4.466;2022-08-01T08:29:24;22.80;99.90
25939;DHT22;13739;51.172;4.466;2022-08-01T08:31:52;23.00;99.90
25939;DHT22;13739;51.172;4.466;2022-08-01T08:34:19;23.00;99.90
25939;DHT22;13739;51.172;4.466;2022-08-01T08:36:44;22.90;99.90
25939;DHT22;13739;51.172;4.466;2022-08-01T08:39:10;22.80;99.90
25939;DHT22;13739;51.172;4.466;2022-08-01T08:41:36;23.20;99.90
25939;DHT22;13739;51.172;4.466;2022-08-01T08:44:06;23.30;99.90
25939;DHT22;13739;51.172;4.466;2022-08-01T08:46:32;23.20;99.90
25939;DHT22;13739;51.172;4.466;2022-08-01T08:48:58;23.20;99.90
25939;DHT22;13739;51.172;4.466;2022-08-01T08:51:26;23.30;99.90
25939;DHT22;13739;51.172;4.466;2022-08-01T08:53:55;23.00;99.90
25939;DHT22;13739;51.172;4.466;2022-08-01T08:56:21;23.20;99.90
25939;DHT22;13739;51.172;4.466;2022-08-01T08:58:48;23.20;99.90
25939;DHT22;13739;51.172;4.466;2022-08-01T09:01:15;23.50;99.90
25939;DHT22;13739;51.172;4.466;2022-08-01T09:03:44;23.60;99.90
25939;DHT22;13739;51.172;4.466;2022-08-01T09:06:10;23.50;99.90
25939;DHT22;13739;51.172;4.466;2022-08-01T09:08:36;23.40;99.90
25939;DHT22;13739;51.172;4.466;2022-08-01T09:11:03;22.90;99.90
25939;DHT22;13739;51.172;4.466;2022-08-01T09:13:29;23.10;99.90
25939;DHT22;13739;51.172;4.466;2022-08-01T09:15:56;23.30;99.90
25939;DHT22;13739;51.172;4.466;2022-08-01T09:18:36;23.20;99.90
25939;DHT22;13739;51.172;4.466;2022-08-01T09:21:14;23.30;99.90
25939;DHT22;13739;51.172;4.466;2022-08-01T09:23:45;23.20;99.90
25939;DHT22;13739;51.172;4.466;2022-08-01T09:26:13;23.40;99.90
25939;DHT22;13739;51.172;4.466;2022-08-01T09:28:40;23.80;99.90
25939;DHT22;13739;51.172;4.466;2022-08-01T09:31:19;24.10;99.90
25939;DHT22;13739;51.172;4.466;2022-08-01T09:33:50;23.90;99.90
25939;DHT22;13739;51.172;4.466;2022-08-01T09:36:16;23.40;99.90
25939;DHT22;13739;51.172;4.466;2022-08-01T09:38:42;23.40;99.90
25939;DHT22;13739;51.172;4.466;2022-08-01T09:41:08;23.30;99.90
25939;DHT22;13739;51.172;4.466;2022-08-01T09:43:34;23.40;99.90
25939;DHT22;13739;51.172;4.466;2022-08-01T09:46:13;23.60;99.90
25939;DHT22;13739;51.172;4.466;2022-08-01T09:48:42;23.60;99.90
25939;DHT22;13739;51.172;4.466;2022-08-01T09:51:28;23.50;99.90
25939;DHT22;13739;51.172;4.466;2022-08-01T09:53:54;23.70;99.90
25939;DHT22;13739;51.172;4.466;2022-08-01T09:56:21;23.90;99.90
25939;DHT22;13739;51.172;4.466;2022-08-01T09:58:54;24.00;99.90
25939;DHT22;13739;51.172;4.466;2022-08-01T10:01:21;23.80;99.90
25939;DHT22;13739;51.172;4.466;2022-08-01T10:04:09;23.60;99.90
25939;DHT22;13739;51.172;4.466;2022-08-01T10:06:35;23.70;99.90
25939;DHT22;13739;51.172;4.466;2022-08-01T10:09:02;24.10;99.90
25939;DHT22;13739;51.172;4.466;2022-08-01T10:11:28;24.20;99.90
25939;DHT22;13739;51.172;4.466;2022-08-01T10:13:56;24.10;99.90
25939;DHT22;13739;51.172;4.466;2022-08-01T10:16:26;24.20;99.90
25939;DHT22;13739;51.172;4.466;2022-08-01T10:18:53;23.80;99.90
25939;DHT22;13739;51.172;4.466;2022-08-01T10:21:20;23.60;99.90
25939;DHT22;13739;51.172;4.466;2022-08-01T10:23:46;23.70;99.90
25939;DHT22;13739;51.172;4.466;2022-08-01T10:26:12;23.80;99.90
25939;DHT22;13739;51.172;4.466;2022-08-01T10:28:39;23.70;99.90
25939;DHT22;13739;51.172;4.466;2022-08-01T10:31:07;23.70;99.90
25939;DHT22;13739;51.172;4.466;2022-08-01T10:33:33;23.70;99.90
25939;DHT22;13739;51.172;4.466;2022-08-01T10:36:01;23.90;99.90
25939;DHT22;13739;51.172;4.466;2022-08-01T10:38:27;23.80;99.90
25939;DHT22;13739;51.172;4.466;2022-08-01T10:40:54;24.20;99.90
25939;DHT22;13739;51.172;4.466;2022-08-01T10:43:22;24.30;99.90
25939;DHT22;13739;51.172;4.466;2022-08-01T10:45:49;24.70;99.90
25939;DHT22;13739;51.172;4.466;2022-08-01T10:51:08;24.80;99.90
25939;DHT22;13739;51.172;4.466;2022-08-01T10:53:33;24.60;99.90
25939;DHT22;13739;51.172;4.466;2022-08-01T10:56:01;24.90;99.90
25939;DHT22;13739;51.172;4.466;2022-08-01T10:58:34;24.80;99.90
25939;DHT22;13739;51.172;4.466;2022-08-01T11:03:45;25.50;99.70
25939;DHT22;13739;51.172;4.466;2022-08-01T11:09:27;25.30;99.20
25939;DHT22;13739;51.172;4.466;2022-08-01T11:11:58;25.10;99.50
25939;DHT22;13739;51.172;4.466;2022-08-01T11:14:25;25.20;99.60
25939;DHT22;13739;51.172;4.466;2022-08-01T11:16:51;25.10;99.80
25939;DHT22;13739;51.172;4.466;2022-08-01T11:19:17;25.30;98.40
25939;DHT22;13739;51.172;4.466;2022-08-01T11:29:43;25.30;98.10
25939;DHT22;13739;51.172;4.466;2022-08-01T11:32:25;25.40;98.20
25939;DHT22;13739;51.172;4.466;2022-08-01T11:34:55;25.50;98.50
25939;DHT22;13739;51.172;4.466;2022-08-01T11:37:28;25.60;99.10
25939;DHT22;13739;51.172;4.466;2022-08-01T11:40:16;25.30;99.00
25939;DHT22;13739;51.172;4.466;2022-08-01T11:42:42;25.20;98.90
25939;DHT22;13739;51.172;4.466;2022-08-01T11:45:08;25.10;98.70
25939;DHT22;13739;51.172;4.466;2022-08-01T11:47:48;25.10;98.50
25939;DHT22;13739;51.172;4.466;2022-08-01T11:53:05;25.30;98.10
25939;DHT22;13739;51.172;4.466;2022-08-01T11:55:32;25.40;97.10
25939;DHT22;13739;51.172;4.466;2022-08-01T11:58:05;25.40;97.30
25939;DHT22;13739;51.172;4.466;2022-08-01T12:00:31;25.50;97.30
25939;DHT22;13739;51.172;4.466;2022-08-01T12:02:59;25.50;96.60
25939;DHT22;13739;51.172;4.466;2022-08-01T12:05:26;25.30;97.20
25939;DHT22;13739;51.172;4.466;2022-08-01T12:07:54;25.30;97.70
25939;DHT22;13739;51.172;4.466;2022-08-01T12:10:25;25.00;98.30
25939;DHT22;13739;51.172;4.466;2022-08-01T12:12:54;24.80;98.70
25939;DHT22;13739;51.172;4.466;2022-08-01T12:15:22;24.80;98.80
25939;DHT22;13739;51.172;4.466;2022-08-01T12:17:56;25.10;98.00
25939;DHT22;13739;51.172;4.466;2022-08-01T12:20:23;24.80;98.10
25939;DHT22;13739;51.172;4.466;2022-08-01T12:22:56;24.80;98.20
25939;DHT22;13739;51.172;4.466;2022-08-01T12:25:22;24.90;98.30
25939;DHT22;13739;51.172;4.466;2022-08-01T12:27:48;25.00;98.20
25939;DHT22;13739;51.172;4.466;2022-08-01T12:30:15;25.00;98.40
25939;DHT22;13739;51.172;4.466;2022-08-01T12:32:44;25.10;97.70
25939;DHT22;13739;51.172;4.466;2022-08-01T12:35:12;25.10;97.20
25939;DHT22;13739;51.172;4.466;2022-08-01T12:37:43;25.20;97.00
25939;DHT22;13739;51.172;4.466;2022-08-01T12:40:15;25.30;96.60
25939;DHT22;13739;51.172;4.466;2022-08-01T12:42:42;25.40;95.90
25939;DHT22;13739;51.172;4.466;2022-08-01T12:45:09;25.50;96.20
25939;DHT22;13739;51.172;4.466;2022-08-01T12:47:40;25.60;96.20
25939;DHT22;13739;51.172;4.466;2022-08-01T12:50:08;25.30;96.30
25939;DHT22;13739;51.172;4.466;2022-08-01T12:52:36;25.10;95.00
25939;DHT22;13739;51.172;4.466;2022-08-01T12:57:32;25.20;95.80
25939;DHT22;13739;51.172;4.466;2022-08-01T13:00:16;25.40;95.60
25939;DHT22;13739;51.172;4.466;2022-08-01T13:02:44;25.60;96.20
25939;DHT22;13739;51.172;4.466;2022-08-01T13:05:10;25.80;95.80
25939;DHT22;13739;51.172;4.466;2022-08-01T13:07:41;26.00;95.00
25939;DHT22;13739;51.172;4.466;2022-08-01T13:10:07;25.70;95.50
25939;DHT22;13739;51.172;4.466;2022-08-01T13:12:33;25.70;95.30
25939;DHT22;13739;51.172;4.466;2022-08-01T13:14:59;25.50;95.80
25939;DHT22;13739;51.172;4.466;2022-08-01T13:17:34;25.50;95.30
25939;DHT22;13739;51.172;4.466;2022-08-01T13:20:05;25.10;95.00
25939;DHT22;13739;51.172;4.466;2022-08-01T13:22:32;25.00;95.20
25939;DHT22;13739;51.172;4.466;2022-08-01T13:25:15;25.20;95.00
25939;DHT22;13739;51.172;4.466;2022-08-01T13:27:41;25.60;94.70
25939;DHT22;13739;51.172;4.466;2022-08-01T13:30:15;25.70;94.20
25939;DHT22;13739;51.172;4.466;2022-08-01T13:32:42;25.60;93.60
25939;DHT22;13739;51.172;4.466;2022-08-01T13:35:11;25.80;93.30
25939;DHT22;13739;51.172;4.466;2022-08-01T13:37:39;25.90;92.50
25939;DHT22;13739;51.172;4.466;2022-08-01T13:40:09;25.40;92.80
25939;DHT22;13739;51.172;4.466;2022-08-01T13:42:35;25.60;93.10
25939;DHT22;13739;51.172;4.466;2022-08-01T13:45:05;25.30;93.30
25939;DHT22;13739;51.172;4.466;2022-08-01T13:47:34;25.60;92.10
25939;DHT22;13739;51.172;4.466;2022-08-01T13:50:00;25.40;92.60
25939;DHT22;13739;51.172;4.466;2022-08-01T13:52:27;25.40;92.40
25939;DHT22;13739;51.172;4.466;2022-08-01T13:54:53;25.60;91.40
25939;DHT22;13739;51.172;4.466;2022-08-01T13:57:18;25.40;92.20
25939;DHT22;13739;51.172;4.466;2022-08-01T13:59:44;25.30;92.50
25939;DHT22;13739;51.172;4.466;2022-08-01T14:02:09;25.20;91.80
25939;DHT22;13739;51.172;4.466;2022-08-01T14:04:35;25.40;92.10
25939;DHT22;13739;51.172;4.466;2022-08-01T14:07:01;25.30;91.60
25939;DHT22;13739;51.172;4.466;2022-08-01T14:09:26;25.10;90.90
25939;DHT22;13739;51.172;4.466;2022-08-01T14:11:52;25.30;90.80
25939;DHT22;13739;51.172;4.466;2022-08-01T14:14:17;25.30;90.10
25939;DHT22;13739;51.172;4.466;2022-08-01T14:16:44;25.00;91.10
25939;DHT22;13739;51.172;4.466;2022-08-01T14:19:12;25.20;90.60
25939;DHT22;13739;51.172;4.466;2022-08-01T14:21:38;25.10;90.00
25939;DHT22;13739;51.172;4.466;2022-08-01T14:24:04;25.30;90.30
25939;DHT22;13739;51.172;4.466;2022-08-01T14:26:31;25.60;89.40
25939;DHT22;13739;51.172;4.466;2022-08-01T14:28:57;25.70;85.70
25939;DHT22;13739;51.172;4.466;2022-08-01T14:31:23;25.60;84.60
25939;DHT22;13739;51.172;4.466;2022-08-01T14:33:48;25.50;87.80
25939;DHT22;13739;51.172;4.466;2022-08-01T14:36:14;25.60;87.70
25939;DHT22;13739;51.172;4.466;2022-08-01T14:38:40;25.60;88.30
25939;DHT22;13739;51.172;4.466;2022-08-01T14:41:05;25.90;86.10
25939;DHT22;13739;51.172;4.466;2022-08-01T14:43:31;26.40;86.20
25939;DHT22;13739;51.172;4.466;2022-08-01T14:46:00;26.20;84.00
25939;DHT22;13739;51.172;4.466;2022-08-01T14:48:26;26.30;84.20
25939;DHT22;13739;51.172;4.466;2022-08-01T14:50:52;26.60;83.70
25939;DHT22;13739;51.172;4.466;2022-08-01T14:53:17;26.30;82.50
25939;DHT22;13739;51.172;4.466;2022-08-01T14:55:43;26.40;82.70
25939;DHT22;13739;51.172;4.466;2022-08-01T14:58:09;26.70;82.10
25939;DHT22;13739;51.172;4.466;2022-08-01T15:00:35;27.10;81.10
25939;DHT22;13739;51.172;4.466;2022-08-01T15:03:01;27.00;80.90
25939;DHT22;13739;51.172;4.466;2022-08-01T15:05:26;26.70;80.20
25939;DHT22;13739;51.172;4.466;2022-08-01T15:07:54;27.00;79.20
25939;DHT22;13739;51.172;4.466;2022-08-01T15:10:20;27.00;78.40
25939;DHT22;13739;51.172;4.466;2022-08-01T15:12:46;26.70;79.50
25939;DHT22;13739;51.172;4.466;2022-08-01T15:15:12;26.90;80.00
25939;DHT22;13739;51.172;4.466;2022-08-01T15:17:38;27.10;78.60
25939;DHT22;13739;51.172;4.466;2022-08-01T15:20:05;27.70;76.80
25939;DHT22;13739;51.172;4.466;2022-08-01T15:22:31;28.20;75.80
25939;DHT22;13739;51.172;4.466;2022-08-01T15:24:58;28.30;75.30
25939;DHT22;13739;51.172;4.466;2022-08-01T15:27:25;27.60;74.50
25939;DHT22;13739;51.172;4.466;2022-08-01T15:29:51;27.50;77.00
25939;DHT22;13739;51.172;4.466;2022-08-01T15:32:16;28.50;74.70
25939;DHT22;13739;51.172;4.466;2022-08-01T15:34:42;28.90;72.30
25939;DHT22;13739;51.172;4.466;2022-08-01T15:37:09;29.40;70.60
25939;DHT22;13739;51.172;4.466;2022-08-01T15:39:35;29.90;69.60
25939;DHT22;13739;51.172;4.466;2022-08-01T15:42:16;29.90;69.80
25939;DHT22;13739;51.172;4.466;2022-08-01T15:44:43;30.30;70.10
25939;DHT22;13739;51.172;4.466;2022-08-01T15:47:09;30.70;68.00
25939;DHT22;13739;51.172;4.466;2022-08-01T15:49:36;31.00;68.00
25939;DHT22;13739;51.172;4.466;2022-08-01T15:52:06;30.50;68.20
25939;DHT22;13739;51.172;4.466;2022-08-01T15:54:32;30.20;69.40
25939;DHT22;13739;51.172;4.466;2022-08-01T15:56:58;30.60;68.80
25939;DHT22;13739;51.172;4.466;2022-08-01T15:59:24;30.10;67.70
25939;DHT22;13739;51.172;4.466;2022-08-01T16:01:49;30.30;67.70
25939;DHT22;13739;51.172;4.466;2022-08-01T16:04:15;31.10;66.60
25939;DHT22;13739;51.172;4.466;2022-08-01T16:06:42;31.90;64.60